Aviation Digital Data Service (ADDS)

Output produced by METARs form (0521 UTC 21 January 2019)
found at http://www.aviationweather.gov/metar/data/
 
Forecast for: EBLG (BIERSET/LIEGE (C, BE)
Text: TAF EBLG 202300Z 2100/2206 VRB02KT CAVOK
Forecast period: 0000 UTC 21 January 2019 to 0200 UTC 22 January 2019
Forecast type: FROM: standard forecast or significant change
Winds: variable direction winds at 2 MPH (2 knots; 1.0 m/s)
Visibility: 6 or more miles 10+ km)
Ceiling: unknown
Clouds: missing
Weather: NSW  (no significant weather)
Text: TEMPO 2103/2109 4000 BR
Forecast period: 0300 to 0900 UTC 21 January 2019
Forecast type: TEMPORARY: The following changes expected for less than half the time period
Visibility: 2.49 miles (4.01 km)
Ceiling: unknown
Clouds: missing
Weather: BR  (mist)
Text: PROB30
Forecast period: 0400 to 0800 UTC 21 January 2019
Forecast type: TEMPORARY: The following changes expected for less than half the time period
Visibility: 0.75 miles (1.21 km)
Ceiling: unknown
Clouds: missing
Weather: BCFG  (patches of fog)
Text: TEMPO 2104/2108 1200 BCFG
Forecast period: 0200 to 0600 UTC 22 January 2019
Forecast type: BECOMING: Conditions expected to become as follows by 0400 UTC 22 January 2019
Winds: from the S (180 degrees) at 12 MPH (10 knots; 5.1 m/s)
Visibility: 6 or more miles 10+ km)
Ceiling: unknown
Clouds: missing
Weather: NSW  (no significant weather)